createdAt,value
2022-10-25T00:01:21.032Z,99.55
2022-10-25T00:03:47.919Z,96.95
2022-10-25T00:06:16.389Z,94.38
2022-10-25T00:08:42.982Z,93.68
2022-10-25T00:11:20.344Z,94.90
2022-10-25T00:13:49.895Z,95.38
2022-10-25T00:16:18.619Z,88.43
2022-10-25T00:18:45.316Z,99.88
2022-10-25T00:21:11.764Z,104.78
2022-10-25T00:23:38.230Z,94.03
2022-10-25T00:26:06.617Z,94.90
2022-10-25T00:28:33.221Z,98.63
2022-10-25T00:31:05.439Z,94.20
2022-10-25T00:33:34.743Z,99.17
2022-10-25T00:36:05.306Z,96.13
2022-10-25T00:38:31.755Z,93.22
2022-10-25T00:40:58.492Z,92.82
2022-10-25T00:43:34.972Z,93.35
2022-10-25T00:46:05.434Z,89.80
2022-10-25T00:48:32.370Z,95.25
2022-10-25T00:50:58.914Z,97.18
2022-10-25T00:53:35.263Z,102.72
2022-10-25T00:56:19.117Z,98.72
2022-10-25T00:58:50.807Z,97.57
2022-10-25T01:01:17.898Z,96.50
2022-10-25T01:03:46.791Z,100.45
2022-10-25T01:06:23.051Z,101.30
2022-10-25T01:08:51.792Z,104.20
2022-10-25T01:11:19.626Z,102.28
2022-10-25T01:13:46.599Z,97.35
2022-10-25T01:16:25.278Z,103.70
2022-10-25T01:19:23.914Z,87.90
2022-10-25T01:22:04.227Z,85.72
2022-10-25T01:25:08.150Z,83.80
2022-10-25T01:28:05.693Z,74.95
2022-10-25T01:30:56.963Z,73.65
2022-10-25T01:33:32.197Z,71.55
2022-10-25T01:36:20.748Z,68.03
2022-10-25T01:39:18.840Z,64.85
2022-10-25T01:41:54.319Z,64.07
2022-10-25T01:44:30.346Z,65.40
2022-10-25T01:47:06.124Z,65.90
2022-10-25T01:49:44.760Z,67.97
2022-10-25T01:52:11.295Z,62.35
2022-10-25T01:54:37.761Z,66.72
2022-10-25T01:57:21.038Z,68.38
2022-10-25T02:00:10.535Z,61.65
2022-10-25T02:02:50.194Z,62.42
2022-10-25T02:05:23.736Z,60.95
2022-10-25T02:08:00.014Z,60.67
2022-10-25T02:10:37.868Z,64.30
2022-10-25T02:13:25.298Z,64.57
2022-10-25T02:16:04.230Z,68.03
2022-10-25T02:18:35.760Z,65.78
2022-10-25T02:21:03.726Z,68.20
2022-10-25T02:23:33.967Z,65.32
2022-10-25T02:26:01.151Z,67.07
2022-10-25T02:28:28.932Z,66.80
2022-10-25T02:30:56.863Z,68.07
2022-10-25T02:33:23.380Z,65.40
2022-10-25T02:36:12.116Z,64.20
2022-10-25T02:38:39.266Z,58.83
2022-10-25T02:41:06.130Z,63.63
2022-10-25T02:43:32.772Z,63.08
2022-10-25T02:45:59.817Z,65.10
2022-10-25T02:48:26.525Z,62.78
2022-10-25T02:50:52.994Z,67.82
2022-10-25T02:53:19.407Z,64.13
2022-10-25T02:55:45.834Z,65.85
2022-10-25T02:58:12.285Z,64.10
2022-10-25T03:00:38.635Z,62.95
2022-10-25T03:03:04.999Z,59.97
2022-10-25T03:05:31.294Z,62.30
2022-10-25T03:07:57.623Z,62.08
2022-10-25T03:10:24.045Z,62.22
2022-10-25T03:12:50.371Z,59.88
2022-10-25T03:15:16.777Z,59.95
2022-10-25T03:17:43.083Z,62.60
2022-10-25T03:20:09.699Z,60.58
2022-10-25T03:22:36.018Z,62.83
2022-10-25T03:25:02.420Z,59.30
2022-10-25T03:27:28.786Z,58.92
2022-10-25T03:29:55.255Z,56.72
2022-10-25T03:32:21.584Z,59.28
2022-10-25T03:34:47.969Z,54.15
2022-10-25T03:37:14.340Z,53.85
2022-10-25T03:39:40.756Z,58.40
2022-10-25T03:42:07.182Z,55.72
2022-10-25T03:44:33.502Z,50.97
2022-10-25T03:46:59.809Z,55.17
2022-10-25T03:49:26.553Z,52.85
2022-10-25T03:51:57.032Z,52.33
2022-10-25T03:54:28.363Z,51.90
2022-10-25T03:56:55.734Z,54.10
2022-10-25T03:59:22.033Z,50.83
2022-10-25T04:01:48.933Z,50.25
2022-10-25T04:04:15.346Z,50.55
2022-10-25T04:06:41.646Z,51.25
2022-10-25T04:09:08.296Z,48.22
2022-10-25T04:11:34.638Z,49.50
2022-10-25T04:14:00.989Z,49.22
2022-10-25T04:16:27.329Z,48.33
2022-10-25T04:18:53.966Z,51.92
2022-10-25T04:21:21.317Z,51.10
2022-10-25T04:23:49.282Z,51.10
2022-10-25T04:26:18.537Z,49.20
2022-10-25T04:28:49.961Z,51.20
2022-10-25T04:31:16.725Z,48.67
2022-10-25T04:33:46.508Z,54.55
2022-10-25T04:36:15.349Z,48.42
2022-10-25T04:38:41.891Z,49.60
2022-10-25T04:41:09.993Z,48.15
2022-10-25T04:43:36.902Z,48.03
2022-10-25T04:46:03.670Z,50.72
2022-10-25T04:48:30.038Z,51.17
2022-10-25T04:50:59.758Z,48.85
2022-10-25T04:53:26.170Z,49.55
2022-10-25T04:56:01.032Z,46.88
2022-10-25T04:58:31.279Z,49.10
2022-10-25T05:01:04.722Z,49.90
2022-10-25T05:03:31.683Z,47.65
2022-10-25T05:06:06.447Z,45.90
2022-10-25T05:08:33.057Z,48.78
2022-10-25T05:10:59.388Z,47.88
2022-10-25T05:13:25.724Z,46.70
2022-10-25T05:15:56.021Z,47.92
2022-10-25T05:18:22.501Z,48.28
2022-10-25T05:20:56.805Z,50.90
2022-10-25T05:26:04.171Z,54.70
2022-10-25T05:28:30.946Z,49.60
2022-10-25T05:30:57.318Z,46.85
2022-10-25T05:33:23.896Z,47.17
2022-10-25T05:35:50.286Z,47.95
2022-10-25T05:38:16.626Z,47.13
2022-10-25T05:40:43.056Z,47.13
2022-10-25T05:43:41.544Z,49.38
2022-10-25T05:46:12.489Z,49.75
2022-10-25T05:48:42.338Z,45.53
2022-10-25T05:54:14.760Z,48.72
2022-10-25T05:56:42.320Z,48.00
2022-10-25T05:59:11.109Z,50.58
2022-10-25T06:01:40.381Z,50.67
2022-10-25T06:04:07.543Z,45.80
2022-10-25T06:06:35.100Z,48.25
2022-10-25T06:09:02.326Z,49.05
2022-10-25T06:11:29.582Z,44.92
2022-10-25T06:13:56.233Z,50.45
2022-10-25T06:16:23.876Z,44.92
2022-10-25T06:18:50.534Z,50.65
2022-10-25T06:21:28.598Z,46.05
2022-10-25T06:23:56.065Z,48.10
2022-10-25T06:26:25.265Z,47.65
2022-10-25T06:28:54.100Z,46.58
2022-10-25T06:31:21.249Z,49.35
2022-10-25T06:33:48.336Z,46.90
2022-10-25T06:36:17.695Z,44.78
2022-10-25T06:38:45.101Z,46.00
2022-10-25T06:41:13.694Z,43.55
2022-10-25T06:43:40.143Z,42.53
2022-10-25T06:46:11.390Z,47.60
2022-10-25T06:48:38.137Z,44.30
2022-10-25T06:51:06.541Z,45.17
2022-10-25T06:53:33.204Z,47.63
2022-10-25T06:56:04.984Z,46.58
2022-10-25T06:58:33.628Z,50.58
2022-10-25T07:01:04.344Z,47.90
2022-10-25T07:03:35.189Z,48.53
2022-10-25T07:06:13.935Z,45.10
2022-10-25T07:08:42.952Z,48.78
2022-10-25T07:11:16.827Z,47.53
2022-10-25T07:13:44.491Z,48.00
2022-10-25T07:16:13.224Z,49.72
2022-10-25T07:18:39.789Z,54.03
2022-10-25T07:21:12.635Z,51.72
2022-10-25T07:23:42.477Z,50.35
2022-10-25T07:26:14.399Z,51.63
2022-10-25T07:28:42.450Z,50.63
2022-10-25T07:31:13.052Z,48.97
2022-10-25T07:33:39.740Z,50.70
2022-10-25T07:36:10.783Z,48.80
2022-10-25T07:38:38.074Z,46.42
2022-10-25T07:41:04.529Z,40.42
2022-10-25T07:43:30.944Z,42.80
2022-10-25T07:45:57.270Z,43.05
2022-10-25T07:48:23.681Z,43.85
2022-10-25T07:50:50.726Z,41.13
2022-10-25T07:53:17.465Z,39.22
2022-10-25T07:55:49.098Z,39.20
2022-10-25T07:58:15.473Z,37.78
2022-10-25T08:00:41.794Z,35.40
2022-10-25T08:03:08.236Z,35.92
2022-10-25T08:05:34.640Z,37.60
2022-10-25T08:08:01.026Z,34.00
2022-10-25T08:10:27.367Z,36.42
2022-10-25T08:12:55.851Z,30.58
2022-10-25T08:15:22.682Z,32.67
2022-10-25T08:17:56.539Z,28.90
2022-10-25T08:20:29.247Z,27.55
2022-10-25T08:23:09.153Z,30.10
2022-10-25T08:25:35.499Z,28.48
2022-10-25T08:28:01.823Z,27.70
2022-10-25T08:30:28.377Z,29.20
2022-10-25T08:32:57.324Z,30.08
2022-10-25T08:35:25.031Z,28.55
2022-10-25T08:37:51.713Z,28.50
2022-10-25T08:40:40.156Z,28.77
2022-10-25T08:43:28.415Z,30.10
2022-10-25T08:45:59.914Z,29.48
2022-10-25T08:48:32.650Z,29.83
2022-10-25T08:51:14.075Z,25.98
2022-10-25T08:53:48.411Z,28.27
2022-10-25T08:56:18.297Z,28.10
2022-10-25T08:58:54.072Z,28.38
2022-10-25T09:01:40.639Z,26.90
2022-10-25T09:04:07.162Z,30.20
2022-10-25T09:06:41.172Z,28.95
2022-10-25T09:09:33.420Z,31.20
2022-10-25T09:11:59.705Z,31.65
2022-10-25T09:14:50.663Z,31.17
2022-10-25T09:17:22.302Z,30.92
2022-10-25T09:19:54.695Z,26.38
2022-10-25T09:22:28.172Z,27.80
2022-10-25T09:25:02.794Z,29.13
2022-10-25T09:27:38.773Z,27.67
2022-10-25T09:30:10.999Z,26.65
2022-10-25T09:32:45.644Z,23.15
2022-10-25T09:35:27.326Z,21.65
2022-10-25T09:38:19.354Z,20.83
2022-10-25T09:41:01.169Z,22.08
2022-10-25T09:43:39.426Z,21.02
2022-10-25T09:46:13.682Z,20.13
2022-10-25T09:48:47.759Z,19.77
2022-10-25T09:51:24.705Z,17.40
2022-10-25T09:53:52.974Z,17.08
2022-10-25T09:56:19.303Z,15.52
2022-10-25T09:58:48.959Z,17.08
2022-10-25T10:01:38.200Z,16.02
2022-10-25T10:04:23.630Z,17.50
2022-10-25T10:06:52.090Z,15.85
2022-10-25T10:09:18.475Z,15.85
2022-10-25T10:11:48.000Z,16.35
2022-10-25T10:14:47.982Z,14.00
2022-10-25T10:17:18.191Z,11.07
2022-10-25T10:19:44.521Z,13.45
2022-10-25T10:22:16.579Z,13.88
2022-10-25T10:24:46.495Z,14.85
2022-10-25T10:27:22.049Z,14.07
2022-10-25T10:29:58.761Z,11.70
2022-10-25T10:32:36.883Z,10.73
2022-10-25T10:35:24.156Z,8.45
2022-10-25T10:37:50.488Z,8.63
2022-10-25T10:40:16.732Z,9.98
2022-10-25T10:42:43.266Z,8.90
2022-10-25T10:45:15.956Z,11.02
2022-10-25T10:47:51.384Z,12.38
2022-10-25T10:50:20.935Z,12.73
2022-10-25T10:52:58.157Z,16.58
2022-10-25T10:55:37.924Z,16.23
2022-10-25T10:58:15.962Z,18.58
2022-10-25T11:01:33.500Z,18.02
2022-10-25T11:04:01.371Z,15.35
2022-10-25T11:06:33.374Z,16.67
2022-10-25T11:09:20.196Z,16.73
2022-10-25T11:12:06.356Z,11.50
2022-10-25T11:14:32.981Z,14.73
2022-10-25T11:17:36.870Z,10.43
2022-10-25T11:20:30.906Z,10.05
2022-10-25T11:23:13.673Z,11.35
2022-10-25T11:26:02.120Z,12.43
2022-10-25T11:28:44.866Z,12.27
2022-10-25T11:31:39.465Z,11.73
2022-10-25T11:34:27.155Z,12.25
2022-10-25T11:37:18.731Z,10.82
2022-10-25T11:40:07.832Z,13.40
2022-10-25T11:42:55.764Z,10.23
2022-10-25T11:45:42.959Z,12.15
2022-10-25T11:48:40.383Z,10.85
2022-10-25T11:51:22.616Z,11.55
2022-10-25T11:54:17.222Z,12.88
2022-10-25T11:57:18.511Z,10.48
2022-10-25T12:00:02.807Z,12.95
2022-10-25T12:03:15.289Z,11.88
2022-10-25T12:06:15.318Z,11.57
2022-10-25T12:08:58.749Z,15.20
2022-10-25T12:11:33.648Z,19.38
2022-10-25T12:14:05.590Z,23.83
2022-10-25T12:16:35.438Z,25.00
2022-10-25T12:19:13.444Z,25.52
2022-10-25T12:21:53.423Z,23.80
2022-10-25T12:24:24.462Z,23.42
2022-10-25T12:26:54.598Z,25.02
2022-10-25T12:29:33.701Z,15.85
2022-10-25T12:32:03.105Z,19.67
2022-10-25T12:34:42.995Z,16.10
2022-10-25T12:37:24.818Z,18.98
2022-10-25T12:39:53.243Z,20.35
2022-10-25T12:42:52.063Z,20.73
2022-10-25T12:45:44.437Z,20.42
2022-10-25T12:48:32.610Z,10.73
2022-10-25T12:51:13.025Z,10.98
2022-10-25T12:54:07.216Z,14.32
2022-10-25T12:56:52.046Z,12.48
2022-10-25T13:00:00.159Z,13.55
2022-10-25T13:02:45.494Z,11.43
2022-10-25T13:05:49.772Z,12.02
2022-10-25T13:08:22.199Z,10.00
2022-10-25T13:11:01.540Z,11.70
2022-10-25T13:13:33.952Z,10.15
2022-10-25T13:16:04.604Z,10.90
2022-10-25T13:18:33.907Z,9.93
2022-10-25T13:21:02.854Z,9.45
2022-10-25T13:23:53.770Z,11.07
2022-10-25T13:26:25.562Z,11.32
2022-10-25T13:28:57.424Z,8.63
2022-10-25T13:31:35.911Z,9.60
2022-10-25T13:34:14.418Z,12.30
2022-10-25T13:36:51.431Z,12.00
2022-10-25T13:39:31.976Z,11.60
2022-10-25T13:42:16.596Z,13.25
2022-10-25T13:45:07.995Z,11.68
2022-10-25T13:47:46.690Z,11.43
2022-10-25T13:53:11.763Z,9.68
2022-10-25T13:55:45.500Z,11.70
2022-10-25T13:58:51.448Z,11.05
2022-10-25T14:01:18.108Z,10.43
2022-10-25T14:03:50.814Z,11.32
2022-10-25T14:06:37.419Z,9.82
2022-10-25T14:09:29.449Z,8.80
2022-10-25T14:12:13.721Z,9.80
2022-10-25T14:14:49.848Z,9.93
2022-10-25T14:20:08.527Z,9.52
2022-10-25T14:22:43.450Z,9.75
2022-10-25T14:25:32.047Z,9.32
2022-10-25T14:28:07.483Z,12.43
2022-10-25T14:30:39.133Z,13.32
2022-10-25T14:33:20.034Z,11.25
2022-10-25T14:35:48.736Z,13.75
2022-10-25T14:38:18.919Z,9.32
2022-10-25T14:40:56.925Z,10.32
2022-10-25T14:43:30.378Z,10.15
2022-10-25T14:46:05.745Z,11.30
2022-10-25T14:48:33.323Z,10.32
2022-10-25T14:51:06.112Z,9.38
2022-10-25T14:53:33.245Z,9.95
2022-10-25T14:56:02.230Z,8.80
2022-10-25T14:58:38.967Z,10.43
2022-10-25T15:01:05.493Z,10.27
2022-10-25T15:03:33.143Z,10.70
2022-10-25T15:05:59.943Z,10.02
2022-10-25T15:08:28.568Z,8.88
2022-10-25T15:10:57.865Z,10.40
2022-10-25T15:13:39.801Z,8.30
2022-10-25T15:16:24.935Z,11.70
2022-10-25T15:19:06.510Z,9.77
2022-10-25T15:21:50.949Z,11.25
2022-10-25T15:24:23.117Z,11.02
2022-10-25T15:27:00.796Z,12.95
2022-10-25T15:29:42.569Z,14.45
2022-10-25T15:32:19.794Z,19.35
2022-10-25T15:35:00.730Z,21.30
2022-10-25T15:37:28.359Z,17.00
2022-10-25T15:39:56.088Z,18.17
2022-10-25T15:42:24.528Z,22.52
2022-10-25T15:44:50.941Z,16.42
2022-10-25T15:47:30.619Z,14.75
2022-10-25T15:49:57.651Z,18.77
2022-10-25T15:52:24.180Z,19.30
2022-10-25T15:54:50.616Z,18.70
2022-10-25T15:57:17.834Z,17.70
2022-10-25T15:59:44.421Z,14.23
2022-10-25T16:02:17.724Z,15.05
2022-10-25T16:04:44.258Z,17.75
2022-10-25T16:07:14.125Z,15.65
2022-10-25T16:09:40.515Z,19.85
2022-10-25T16:12:09.096Z,16.92
2022-10-25T16:14:36.528Z,19.13
2022-10-25T16:17:03.133Z,15.35
2022-10-25T16:19:31.500Z,14.90
2022-10-25T16:21:58.790Z,13.95
2022-10-25T16:24:25.187Z,15.50
2022-10-25T16:26:52.589Z,15.80
2022-10-25T16:29:25.353Z,18.55
2022-10-25T16:31:52.558Z,21.13
2022-10-25T16:34:19.586Z,20.30
2022-10-25T16:36:47.335Z,22.67
2022-10-25T16:39:13.976Z,25.30
2022-10-25T16:41:42.675Z,25.85
2022-10-25T16:44:11.861Z,27.67
2022-10-25T16:46:39.100Z,29.63
2022-10-25T16:49:05.822Z,28.73
2022-10-25T16:51:34.641Z,30.20
2022-10-25T16:54:01.414Z,30.83
2022-10-25T16:56:28.015Z,28.77
2022-10-25T16:58:54.507Z,26.65
2022-10-25T17:01:35.399Z,26.40
2022-10-25T17:04:04.221Z,26.42
2022-10-25T17:06:45.945Z,25.55
2022-10-25T17:09:12.407Z,25.50
2022-10-25T17:11:38.755Z,25.27
2022-10-25T17:14:05.755Z,25.13
2022-10-25T17:16:32.236Z,25.30
2022-10-25T17:18:58.634Z,24.25
2022-10-25T17:21:25.036Z,25.17
2022-10-25T17:23:51.358Z,23.25
2022-10-25T17:26:17.747Z,24.83
2022-10-25T17:28:44.508Z,24.05
2022-10-25T17:31:13.386Z,22.00
2022-10-25T17:33:40.549Z,23.35
2022-10-25T17:36:15.583Z,26.25
2022-10-25T17:38:42.389Z,26.50
2022-10-25T17:41:09.224Z,26.60
2022-10-25T17:43:37.109Z,24.67
2022-10-25T17:46:09.521Z,26.48
2022-10-25T17:48:35.965Z,25.08
2022-10-25T17:51:10.542Z,24.38
2022-10-25T17:53:37.394Z,26.00
2022-10-25T17:56:16.078Z,23.70
2022-10-25T17:58:44.257Z,24.33
2022-10-25T18:01:12.299Z,23.95
2022-10-25T18:03:39.270Z,22.45
2022-10-25T18:06:08.939Z,23.00
2022-10-25T18:08:38.669Z,23.17
2022-10-25T18:11:13.010Z,21.42
2022-10-25T18:16:10.880Z,21.23
2022-10-25T18:18:38.067Z,23.23
2022-10-25T18:21:13.284Z,20.58
2022-10-25T18:23:40.589Z,23.60
2022-10-25T18:26:08.693Z,23.20
2022-10-25T18:28:36.013Z,20.48
2022-10-25T18:31:04.946Z,22.42
2022-10-25T18:33:36.730Z,22.30
2022-10-25T18:36:15.763Z,22.20
2022-10-25T18:38:42.196Z,19.40
2022-10-25T18:41:10.684Z,19.60
2022-10-25T18:43:37.131Z,21.33
2022-10-25T18:46:03.678Z,22.17
2022-10-25T18:48:30.214Z,22.27
2022-10-25T18:50:56.667Z,23.58
2022-10-25T18:53:23.233Z,21.92
2022-10-25T18:55:52.965Z,23.95
2022-10-25T18:58:19.667Z,24.98
2022-10-25T19:00:46.934Z,25.83
2022-10-25T19:03:19.939Z,26.23
2022-10-25T19:05:55.240Z,26.25
2022-10-25T19:08:21.604Z,23.98
2022-10-25T19:10:50.116Z,21.48
2022-10-25T19:13:19.661Z,21.10
2022-10-25T19:15:46.567Z,20.05
2022-10-25T19:18:16.638Z,24.13
2022-10-25T19:20:46.267Z,22.73
2022-10-25T19:23:13.035Z,22.48
2022-10-25T19:25:39.432Z,22.92
2022-10-25T19:28:05.781Z,23.48
2022-10-25T19:30:35.460Z,23.13
2022-10-25T19:33:04.421Z,22.38
2022-10-25T19:35:30.869Z,22.98
2022-10-25T19:37:57.275Z,24.10
2022-10-25T19:40:23.657Z,24.27
2022-10-25T19:42:50.135Z,23.33
2022-10-25T19:45:16.508Z,22.50
2022-10-25T19:47:43.766Z,21.73
2022-10-25T19:50:10.308Z,23.85
2022-10-25T19:52:37.968Z,24.40
2022-10-25T19:55:06.212Z,22.80
2022-10-25T19:57:33.200Z,23.17
2022-10-25T19:59:59.628Z,23.00
2022-10-25T20:02:26.130Z,23.38
2022-10-25T20:04:52.697Z,21.65
2022-10-25T20:07:19.443Z,22.35
2022-10-25T20:09:45.817Z,22.48
2022-10-25T20:12:12.151Z,22.85
2022-10-25T20:14:38.538Z,22.52
2022-10-25T20:17:06.042Z,25.45
2022-10-25T20:19:32.494Z,27.80
2022-10-25T20:21:59.043Z,29.02
2022-10-25T20:24:25.500Z,27.45
2022-10-25T20:26:53.124Z,28.73
2022-10-25T20:29:24.018Z,29.45
2022-10-25T20:31:51.715Z,28.42
2022-10-25T20:34:19.498Z,29.17
2022-10-25T20:36:46.898Z,29.73
2022-10-25T20:39:13.761Z,26.67
2022-10-25T20:41:40.154Z,27.30
2022-10-25T20:44:08.755Z,26.45
2022-10-25T20:46:35.626Z,27.40
2022-10-25T20:49:03.247Z,25.95
2022-10-25T20:51:29.566Z,28.05
2022-10-25T20:53:56.914Z,25.85
2022-10-25T20:56:24.036Z,25.67
2022-10-25T20:58:50.728Z,24.52
2022-10-25T21:01:17.487Z,25.08
2022-10-25T21:03:43.990Z,24.63
2022-10-25T21:06:14.177Z,24.05
2022-10-25T21:08:40.533Z,23.58
2022-10-25T21:11:09.848Z,25.23
2022-10-25T21:13:37.182Z,25.20
2022-10-25T21:16:07.287Z,24.00
2022-10-25T21:18:33.757Z,25.77
2022-10-25T21:21:02.266Z,25.48
2022-10-25T21:23:28.683Z,26.90
2022-10-25T21:26:03.285Z,26.42
2022-10-25T21:28:38.030Z,27.73
2022-10-25T21:31:10.712Z,27.10
2022-10-25T21:33:37.271Z,26.73
2022-10-25T21:36:09.242Z,28.35
2022-10-25T21:38:35.845Z,27.05
2022-10-25T21:41:08.192Z,28.40
2022-10-25T21:43:34.698Z,29.02
2022-10-25T21:46:04.397Z,28.25
2022-10-25T21:48:30.693Z,29.27
2022-10-25T21:50:58.811Z,28.90
2022-10-25T21:53:25.643Z,28.00
2022-10-25T21:56:02.176Z,28.52
2022-10-25T21:58:28.479Z,29.83
2022-10-25T22:00:54.806Z,28.02
2022-10-25T22:03:23.078Z,29.35
2022-10-25T22:05:51.917Z,36.03
2022-10-25T22:08:21.724Z,38.53
2022-10-25T22:11:05.057Z,33.85
2022-10-25T22:13:32.007Z,38.17
2022-10-25T22:16:04.598Z,37.13
2022-10-25T22:18:31.271Z,37.08
2022-10-25T22:21:00.689Z,35.08
2022-10-25T22:23:29.406Z,34.00
2022-10-25T22:26:00.229Z,40.97
2022-10-25T22:28:27.001Z,41.33
2022-10-25T22:31:01.910Z,38.05
2022-10-25T22:33:29.373Z,40.42
2022-10-25T22:36:00.754Z,43.15
2022-10-25T22:38:28.085Z,40.53
2022-10-25T22:40:58.754Z,41.55
2022-10-25T22:43:25.578Z,44.22
2022-10-25T22:45:52.105Z,45.75
2022-10-25T22:48:18.446Z,44.25
2022-10-25T22:50:53.596Z,44.25
2022-10-25T22:53:21.693Z,41.47
2022-10-25T22:56:00.498Z,44.72
2022-10-25T22:58:28.489Z,41.20
2022-10-25T23:03:45.490Z,40.72
2022-10-25T23:06:14.629Z,38.83
2022-10-25T23:08:41.631Z,40.45
2022-10-25T23:11:13.109Z,42.13
2022-10-25T23:13:39.431Z,37.95
2022-10-25T23:16:06.514Z,40.08
2022-10-25T23:18:33.390Z,39.03
2022-10-25T23:21:01.953Z,42.45
2022-10-25T23:23:34.159Z,37.13
2022-10-25T23:26:00.732Z,40.47
2022-10-25T23:28:29.925Z,40.38
2022-10-25T23:30:56.530Z,38.80
2022-10-25T23:33:22.860Z,40.28
2022-10-25T23:35:49.184Z,39.35
2022-10-25T23:38:15.509Z,39.53
2022-10-25T23:40:46.735Z,39.90
2022-10-25T23:43:13.139Z,39.42
2022-10-25T23:45:41.825Z,38.17
2022-10-25T23:48:08.166Z,38.40
2022-10-25T23:50:34.479Z,40.53
2022-10-25T23:53:00.803Z,37.22
2022-10-25T23:55:27.388Z,40.78
2022-10-25T23:57:57.869Z,41.08
